Time;durP1;ratioP1;P1;durP2;ratioP2;P2;SDS_P1;SDS_P2;PMS_P1;PMS_P2;Temp;Humidity;BMP_temperature;BMP_pressure;BME280_temperature;BME280_humidity;BME280_pressure;Samples;Min_cycle;Max_cycle;Signal;HPM_P1;HPM_P2
2021/05/04 00:00:40;;;;;;;5.88;1.90;;;7.20;66.70;;;;;;4940897;28;20056;-85
2021/05/04 00:03:08;;;;;;;5.63;1.50;;;7.20;66.80;;;;;;4937001;28;20059;-86
2021/05/04 00:05:35;;;;;;;3.40;1.77;;;7.10;67.50;;;;;;4955566;28;20362;-85
2021/05/04 00:08:04;;;;;;;6.93;2.03;;;7.00;68.20;;;;;;4954260;28;20059;-83
2021/05/04 00:10:31;;;;;;;8.23;2.25;;;6.90;68.50;;;;;;4926071;29;20042;-82
2021/05/04 00:13:01;;;;;;;3.65;1.60;;;6.90;69.20;;;;;;4953434;28;20055;-84
2021/05/04 00:15:32;;;;;;;4.35;1.98;;;6.90;69.30;;;;;;4952686;28;20305;-86
2021/05/04 00:17:59;;;;;;;8.02;1.60;;;6.80;69.90;;;;;;4953159;28;20152;-86
2021/05/04 00:20:28;;;;;;;3.58;2.20;;;6.70;70.50;;;;;;4969380;28;20150;-85
2021/05/04 00:22:55;;;;;;;5.55;1.77;;;6.60;70.90;;;;;;4954092;28;20082;-86
2021/05/04 00:25:23;;;;;;;4.43;2.05;;;6.70;70.60;;;;;;4937211;28;20062;-84
2021/05/04 00:27:50;;;;;;;5.03;1.83;;;6.70;71.00;;;;;;4945295;29;20058;-83
2021/05/04 00:30:17;;;;;;;6.03;1.77;;;6.50;71.20;;;;;;4961642;28;20098;-84
2021/05/04 00:32:44;;;;;;;4.13;1.52;;;6.60;70.90;;;;;;4949974;28;20627;-84
2021/05/04 00:35:12;;;;;;;6.72;1.90;;;6.50;71.30;;;;;;4942622;28;20347;-84
2021/05/04 00:37:40;;;;;;;2.85;1.58;;;6.50;70.90;;;;;;4953658;28;20044;-83
2021/05/04 00:40:08;;;;;;;4.57;1.73;;;6.50;71.00;;;;;;4951172;28;20054;-84
2021/05/04 00:42:35;;;;;;;2.40;1.55;;;6.50;71.40;;;;;;4952713;28;20258;-85
2021/05/04 00:45:06;;;;;;;2.55;1.45;;;6.50;71.10;;;;;;4950197;28;20055;-85
2021/05/04 00:47:33;;;;;;;3.40;1.48;;;6.30;71.50;;;;;;4950697;28;20110;-85
2021/05/04 00:50:00;;;;;;;5.75;1.63;;;6.40;71.30;;;;;;4953097;28;20085;-84
2021/05/04 00:52:29;;;;;;;3.55;2.05;;;6.20;72.20;;;;;;4947901;29;20054;-84
2021/05/04 00:54:58;;;;;;;2.72;1.20;;;6.20;72.50;;;;;;4946588;28;20114;-83
2021/05/04 00:57:26;;;;;;;4.43;1.67;;;6.20;72.60;;;;;;4953114;28;20131;-83
2021/05/04 00:59:57;;;;;;;3.33;1.60;;;6.20;72.70;;;;;;4951693;28;20118;-85
2021/05/04 01:02:25;;;;;;;3.30;1.50;;;6.20;72.70;;;;;;4945815;28;20327;-86
2021/05/04 01:04:52;;;;;;;2.95;1.60;;;6.10;73.10;;;;;;4946812;28;20131;-87
2021/05/04 01:07:19;;;;;;;6.18;1.80;;;6.00;73.10;;;;;;4948976;28;20059;-85
2021/05/04 01:09:49;;;;;;;4.55;1.80;;;6.00;73.20;;;;;;4938972;29;20067;-83
2021/05/04 01:12:17;;;;;;;3.95;2.00;;;6.10;72.50;;;;;;4937934;28;20048;-86
2021/05/04 01:14:44;;;;;;;8.35;2.40;;;6.10;72.70;;;;;;4951231;28;20062;-85
2021/05/04 01:17:11;;;;;;;6.13;1.85;;;6.00;73.00;;;;;;4951382;28;20044;-85
2021/05/04 01:19:39;;;;;;;3.95;1.88;;;6.00;73.50;;;;;;4948170;29;20436;-86
2021/05/04 01:22:08;;;;;;;7.13;2.10;;;6.00;74.10;;;;;;4949094;28;20043;-86
2021/05/04 01:24:45;;;;;;;3.22;1.63;;;5.90;73.50;;;;;;4949290;29;20164;-86
2021/05/04 01:27:18;;;;;;;3.08;1.60;;;6.00;73.10;;;;;;4949159;28;20043;-84
2021/05/04 01:29:46;;;;;;;3.53;2.13;;;6.00;73.50;;;;;;4950128;28;20070;-84
2021/05/04 01:32:13;;;;;;;6.15;1.70;;;6.00;73.70;;;;;;4938518;28;20386;-86
2021/05/04 01:34:40;;;;;;;4.05;1.90;;;5.90;73.60;;;;;;4948624;28;20111;-84
2021/05/04 01:37:10;;;;;;;5.38;1.80;;;5.90;74.00;;;;;;4954630;28;20050;-86
2021/05/04 01:39:45;;;;;;;3.58;1.63;;;5.90;73.50;;;;;;4951981;28;20349;-84
2021/05/04 01:42:14;;;;;;;3.03;1.50;;;6.00;73.70;;;;;;4947087;28;20063;-85
2021/05/04 01:44:41;;;;;;;5.05;1.80;;;6.00;74.10;;;;;;4938080;29;20055;-86
2021/05/04 01:47:10;;;;;;;4.72;2.03;;;5.90;74.70;;;;;;4940146;28;20047;-84
2021/05/04 01:49:37;;;;;;;3.85;2.08;;;5.80;74.70;;;;;;4927810;29;20059;-86
2021/05/04 01:52:06;;;;;;;4.88;2.40;;;5.80;74.80;;;;;;4934616;28;20043;-84
2021/05/04 01:54:39;;;;;;;4.38;2.13;;;5.90;75.30;;;;;;4942803;29;20051;-86
2021/05/04 01:57:07;;;;;;;4.55;2.05;;;5.90;75.00;;;;;;4938023;28;20056;-85
2021/05/04 01:59:35;;;;;;;9.23;1.92;;;5.90;74.70;;;;;;4946753;28;20074;-85
2021/05/04 02:02:02;;;;;;;2.92;1.65;;;5.90;74.10;;;;;;4938262;28;20059;-83
2021/05/04 02:04:31;;;;;;;3.30;1.50;;;6.00;73.80;;;;;;4935471;29;20131;-84
2021/05/04 02:06:59;;;;;;;3.90;1.77;;;6.00;73.80;;;;;;4959026;28;20051;-82
2021/05/04 02:09:26;;;;;;;4.82;1.65;;;6.10;73.50;;;;;;4946041;28;20055;-85
2021/05/04 02:11:54;;;;;;;5.50;2.35;;;6.20;73.50;;;;;;4948062;28;23196;-85
2021/05/04 02:14:23;;;;;;;5.95;2.28;;;6.20;73.70;;;;;;4946880;28;20051;-85
2021/05/04 02:16:51;;;;;;;6.40;1.98;;;6.20;73.40;;;;;;4949247;28;20055;-86
2021/05/04 02:19:18;;;;;;;4.28;1.83;;;6.40;73.30;;;;;;4954637;28;20055;-85
2021/05/04 02:21:46;;;;;;;3.97;1.77;;;6.40;73.40;;;;;;4951029;28;20067;-87
2021/05/04 02:24:14;;;;;;;5.45;1.85;;;6.40;73.30;;;;;;4939241;29;20131;-87
2021/05/04 02:26:47;;;;;;;3.70;1.65;;;6.40;72.80;;;;;;4950602;28;20095;-86
2021/05/04 02:29:15;;;;;;;3.55;1.98;;;6.50;72.80;;;;;;4942229;28;20115;-84
2021/05/04 02:31:42;;;;;;;5.00;2.10;;;6.50;72.90;;;;;;4953868;28;20047;-85
2021/05/04 02:34:09;;;;;;;4.25;1.48;;;6.50;73.20;;;;;;4950203;28;20098;-84
2021/05/04 02:36:36;;;;;;;4.07;1.83;;;6.60;72.30;;;;;;4961976;28;20054;-87
2021/05/04 02:39:06;;;;;;;2.10;1.42;;;6.70;71.90;;;;;;4936665;28;20047;-86
2021/05/04 02:41:33;;;;;;;5.45;2.03;;;6.80;71.90;;;;;;4950096;28;20045;-87
2021/05/04 02:44:02;;;;;;;7.05;2.00;;;6.90;71.70;;;;;;4952858;28;20087;-86
2021/05/04 02:46:43;;;;;;;3.80;1.80;;;6.90;71.70;;;;;;4948115;28;20279;-86
2021/05/04 02:49:10;;;;;;;5.35;1.75;;;6.80;71.60;;;;;;4950774;28;20063;-85
2021/05/04 02:51:37;;;;;;;6.05;1.58;;;7.00;71.10;;;;;;4958488;28;20408;-84
2021/05/04 02:54:08;;;;;;;2.97;1.60;;;7.00;70.10;;;;;;4958867;28;20066;-86
2021/05/04 02:56:34;;;;;;;;;;;7.30;67.00;;;;;;4937408;29;20063;-85
2021/05/04 02:59:02;;;;;;;3.13;1.65;;;7.60;66.50;;;;;;4945598;28;19922;-86
2021/05/04 03:01:29;;;;;;;4.18;1.52;;;7.70;63.70;;;;;;4934088;28;20047;-84
2021/05/04 03:03:57;;;;;;;2.47;1.08;;;8.20;61.60;;;;;;4956883;28;20086;-86
2021/05/04 03:06:24;;;;;;;3.42;1.40;;;8.40;61.70;;;;;;4937200;28;20350;-85
2021/05/04 03:08:51;;;;;;;2.95;1.13;;;8.90;58.20;;;;;;4918803;29;20055;-84
2021/05/04 03:11:22;;;;;;;2.20;1.00;;;9.90;52.50;;;;;;4942203;28;20059;-83
2021/05/04 03:13:49;;;;;;;1.60;1.00;;;10.20;51.30;;;;;;4941785;28;20062;-86
2021/05/04 03:16:16;;;;;;;3.10;1.17;;;10.50;49.20;;;;;;4942234;28;20087;-87
2021/05/04 03:18:43;;;;;;;2.55;1.10;;;10.80;48.30;;;;;;4944796;29;20078;-85
2021/05/04 03:21:11;;;;;;;2.60;1.02;;;11.00;47.80;;;;;;4936279;28;20056;-84
2021/05/04 03:23:38;;;;;;;4.97;1.45;;;11.10;47.20;;;;;;4950202;28;20056;-84
2021/05/04 03:26:06;;;;;;;2.05;1.20;;;11.10;47.10;;;;;;4940791;28;20058;-84
2021/05/04 03:28:33;;;;;;;2.33;0.85;;;11.20;46.60;;;;;;4941227;29;20075;-86
2021/05/04 03:31:00;;;;;;;4.47;1.40;;;11.40;46.80;;;;;;4951113;28;20111;-84
2021/05/04 03:33:31;;;;;;;3.35;0.95;;;11.60;45.20;;;;;;4947270;28;21447;-85
2021/05/04 03:35:58;;;;;;;3.40;1.27;;;11.70;45.30;;;;;;4959125;28;20075;-85
2021/05/04 03:38:25;;;;;;;1.77;0.80;;;11.70;44.70;;;;;;4952991;28;20047;-84
2021/05/04 03:40:53;;;;;;;3.60;1.60;;;11.90;44.40;;;;;;4946147;28;20067;-84
2021/05/04 03:43:20;;;;;;;2.50;1.17;;;12.10;43.90;;;;;;4922902;28;20051;-84
2021/05/04 03:45:47;;;;;;;2.38;1.15;;;12.00;44.40;;;;;;4940740;28;20094;-84
2021/05/04 03:48:14;;;;;;;1.67;0.90;;;12.00;44.10;;;;;;4950215;28;20047;-84
2021/05/04 03:50:42;;;;;;;4.95;1.50;;;11.90;44.00;;;;;;4935529;29;20052;-86
2021/05/04 03:53:09;;;;;;;1.60;0.80;;;11.90;44.00;;;;;;4917521;28;20107;-83
2021/05/04 03:55:37;;;;;;;2.70;1.30;;;11.80;44.20;;;;;;4936839;29;20220;-85
2021/05/04 03:58:04;;;;;;;2.03;1.20;;;11.80;44.70;;;;;;4947591;28;20047;-87
2021/05/04 04:00:31;;;;;;;4.20;1.20;;;11.90;44.30;;;;;;4944711;28;20051;-87
2021/05/04 04:02:58;;;;;;;4.38;1.20;;;11.90;44.10;;;;;;4938429;29;20051;-83
2021/05/04 04:05:25;;;;;;;2.83;1.65;;;11.90;44.30;;;;;;4943205;28;20059;-84
2021/05/04 04:07:52;;;;;;;2.45;1.20;;;11.90;44.20;;;;;;4947081;28;20082;-84
2021/05/04 04:10:19;;;;;;;3.28;1.13;;;11.90;44.50;;;;;;4938482;28;20075;-85
2021/05/04 04:12:48;;;;;;;3.40;1.23;;;11.90;44.30;;;;;;4960657;28;20331;-85
2021/05/04 04:15:16;;;;;;;2.70;1.33;;;12.00;44.00;;;;;;4949950;28;20107;-83
2021/05/04 04:17:43;;;;;;;2.63;1.27;;;12.00;44.10;;;;;;4935829;29;20066;-85
2021/05/04 04:20:11;;;;;;;3.10;1.52;;;12.00;44.10;;;;;;4944832;28;20067;-84
2021/05/04 04:22:38;;;;;;;2.33;1.00;;;12.10;43.80;;;;;;4953013;28;20343;-86
2021/05/04 04:25:07;;;;;;;1.60;0.77;;;12.10;43.90;;;;;;4962018;28;20058;-84
2021/05/04 04:27:35;;;;;;;3.30;1.52;;;12.10;44.20;;;;;;4940672;28;20057;-87
2021/05/04 04:30:04;;;;;;;3.28;1.20;;;12.10;44.10;;;;;;4934199;28;20070;-84
2021/05/04 04:32:31;;;;;;;5.47;1.50;;;12.10;44.00;;;;;;4932541;29;20242;-86
2021/05/04 04:34:58;;;;;;;3.40;1.30;;;12.10;44.20;;;;;;4959244;28;20114;-84
2021/05/04 04:37:25;;;;;;;4.90;1.42;;;12.10;44.50;;;;;;4942635;28;20122;-86
2021/05/04 04:39:52;;;;;;;3.20;1.15;;;12.10;44.70;;;;;;4938344;29;20256;-86
2021/05/04 04:42:19;;;;;;;1.95;1.00;;;11.90;44.90;;;;;;4939457;28;20039;-85
2021/05/04 04:44:46;;;;;;;3.10;1.10;;;11.90;44.80;;;;;;4943963;29;20055;-85
2021/05/04 04:47:15;;;;;;;3.65;1.00;;;12.00;44.50;;;;;;4938808;28;20090;-86
2021/05/04 04:49:42;;;;;;;3.60;1.35;;;12.00;44.90;;;;;;4949479;28;20073;-84
2021/05/04 04:52:09;;;;;;;3.70;1.25;;;12.00;44.60;;;;;;4931402;28;20047;-85
2021/05/04 04:54:36;;;;;;;3.65;1.55;;;12.10;44.70;;;;;;4942026;28;20051;-85
2021/05/04 04:57:04;;;;;;;2.72;1.00;;;12.10;44.90;;;;;;4945504;28;20043;-86
2021/05/04 04:59:33;;;;;;;3.88;1.35;;;12.10;44.80;;;;;;4938940;29;20059;-85
2021/05/04 05:02:01;;;;;;;5.60;1.10;;;12.10;44.90;;;;;;4940066;28;20039;-83
2021/05/04 05:04:30;;;;;;;2.53;1.23;;;12.10;45.00;;;;;;4933966;29;20411;-86
2021/05/04 05:06:57;;;;;;;2.80;1.00;;;12.10;44.90;;;;;;4937812;29;20126;-85
2021/05/04 05:09:24;;;;;;;2.53;1.27;;;12.20;44.60;;;;;;4914657;28;20127;-83
2021/05/04 05:11:51;;;;;;;3.60;1.15;;;12.20;44.50;;;;;;4941347;28;20071;-85
2021/05/04 05:14:19;;;;;;;4.53;1.30;;;12.20;45.00;;;;;;4941646;28;20296;-84
2021/05/04 05:16:46;;;;;;;3.80;2.03;;;12.20;44.80;;;;;;4942879;28;20062;-85
2021/05/04 05:19:13;;;;;;;4.45;1.25;;;12.20;44.60;;;;;;4936139;28;20069;-83
2021/05/04 05:21:41;;;;;;;5.10;1.25;;;12.20;44.60;;;;;;4941099;28;20048;-86
2021/05/04 05:24:09;;;;;;;4.78;1.20;;;12.30;44.70;;;;;;4950194;28;20055;-84
2021/05/04 05:26:36;;;;;;;3.65;1.05;;;12.20;44.50;;;;;;4946637;28;20056;-85
2021/05/04 05:29:06;;;;;;;3.28;1.50;;;12.20;44.50;;;;;;4957543;28;20518;-84
2021/05/04 05:31:34;;;;;;;1.90;1.00;;;12.20;44.60;;;;;;4948313;28;20059;-84
2021/05/04 05:34:02;;;;;;;2.83;1.33;;;12.30;44.40;;;;;;4940598;28;20059;-85
2021/05/04 05:36:31;;;;;;;3.08;1.20;;;12.40;44.00;;;;;;4953366;28;20055;-87
2021/05/04 05:38:59;;;;;;;3.92;0.90;;;12.50;43.90;;;;;;4944374;28;20047;-86
2021/05/04 05:41:26;;;;;;;2.45;1.08;;;12.50;43.80;;;;;;4955178;28;20059;-85
2021/05/04 05:43:53;;;;;;;3.53;1.38;;;12.60;43.60;;;;;;4944873;28;20231;-87
2021/05/04 05:46:22;;;;;;;3.83;0.85;;;12.60;43.00;;;;;;4944818;28;20051;-86
2021/05/04 05:48:49;;;;;;;4.15;1.52;;;12.60;43.10;;;;;;4936475;29;20082;-83
2021/05/04 05:51:16;;;;;;;2.60;1.27;;;12.70;42.80;;;;;;4944351;28;20051;-87
2021/05/04 05:53:43;;;;;;;2.72;0.98;;;12.70;43.00;;;;;;4943750;29;20231;-87
2021/05/04 05:56:11;;;;;;;4.20;0.95;;;12.70;42.50;;;;;;4942767;28;20047;-86
2021/05/04 05:58:38;;;;;;;4.25;1.25;;;12.70;42.50;;;;;;4939825;29;20052;-85
2021/05/04 06:01:05;;;;;;;2.22;0.95;;;12.80;42.30;;;;;;4948629;28;20063;-86
2021/05/04 06:03:32;;;;;;;1.45;0.75;;;12.70;42.80;;;;;;4951760;28;20047;-85
2021/05/04 06:06:00;;;;;;;3.70;0.82;;;12.70;42.50;;;;;;4945049;29;20274;-85
2021/05/04 06:08:31;;;;;;;1.98;1.30;;;12.70;42.60;;;;;;4930607;29;20039;-84
2021/05/04 06:10:58;;;;;;;2.10;0.82;;;12.70;42.70;;;;;;4944018;28;20047;-85
2021/05/04 06:13:26;;;;;;;2.47;1.00;;;12.70;42.70;;;;;;4946317;28;20040;-85
2021/05/04 06:15:53;;;;;;;13.23;1.85;;;12.70;42.70;;;;;;4960784;28;20066;-86
2021/05/04 06:18:21;;;;;;;1.98;0.82;;;12.80;42.00;;;;;;4934811;28;20055;-85
2021/05/04 06:20:48;;;;;;;2.47;1.10;;;12.70;42.20;;;;;;4940437;28;20047;-86
2021/05/04 06:23:15;;;;;;;4.18;1.10;;;12.70;42.10;;;;;;4951869;28;20587;-88
2021/05/04 06:25:45;;;;;;;2.70;1.25;;;12.70;42.30;;;;;;4942235;29;20290;-84
2021/05/04 06:28:12;;;;;;;1.80;0.95;;;12.80;42.50;;;;;;4937849;28;20059;-85
2021/05/04 06:30:41;;;;;;;2.22;0.90;;;12.70;42.30;;;;;;4945092;28;20059;-86
2021/05/04 06:33:09;;;;;;;6.78;1.15;;;12.70;42.30;;;;;;4943744;28;20366;-86
2021/05/04 06:35:40;;;;;;;6.00;1.83;;;12.70;42.40;;;;;;4941289;28;20048;-84
2021/05/04 06:38:07;;;;;;;2.90;1.17;;;12.60;42.30;;;;;;4942546;29;20128;-84
2021/05/04 06:40:35;;;;;;;2.70;1.20;;;12.70;42.50;;;;;;4939049;29;20341;-87
2021/05/04 06:43:04;;;;;;;3.55;0.88;;;12.70;42.10;;;;;;4925701;28;20084;-84
2021/05/04 06:45:31;;;;;;;2.67;0.93;;;12.70;42.30;;;;;;4940912;29;20047;-84
2021/05/04 06:48:00;;;;;;;1.42;0.75;;;12.70;42.00;;;;;;4943226;29;20372;-86
2021/05/04 06:50:30;;;;;;;1.73;0.70;;;12.70;42.10;;;;;;4948300;28;20063;-86
2021/05/04 06:52:57;;;;;;;6.78;2.20;;;12.70;42.10;;;;;;4939416;29;20060;-82
2021/05/04 06:55:25;;;;;;;3.65;1.13;;;12.80;41.70;;;;;;4956286;28;20351;-84
2021/05/04 06:57:52;;;;;;;3.83;1.45;;;12.80;41.30;;;;;;4950479;28;20078;-84
2021/05/04 07:00:20;;;;;;;10.40;0.90;;;12.70;41.60;;;;;;4937991;28;20449;-84
2021/05/04 07:02:48;;;;;;;3.55;0.90;;;12.70;40.80;;;;;;4944565;28;20111;-85
2021/05/04 07:05:17;;;;;;;3.13;0.90;;;12.70;41.10;;;;;;4934494;28;20047;-81
2021/05/04 07:07:44;;;;;;;5.22;1.05;;;12.80;40.60;;;;;;4950118;28;20469;-84
2021/05/04 07:10:12;;;;;;;2.08;0.85;;;12.80;41.10;;;;;;4946150;28;20082;-85
2021/05/04 07:12:40;;;;;;;1.35;0.70;;;12.80;41.10;;;;;;4945600;28;20100;-86
2021/05/04 07:15:08;;;;;;;2.67;0.88;;;12.80;40.60;;;;;;4954789;28;20062;-81
2021/05/04 07:17:36;;;;;;;2.05;0.88;;;12.80;40.60;;;;;;4942059;29;20219;-83
2021/05/04 07:20:03;;;;;;;1.10;0.80;;;12.90;40.70;;;;;;4945354;28;20064;-80
2021/05/04 07:22:34;;;;;;;1.85;0.65;;;12.90;40.80;;;;;;4938621;29;20162;-83
2021/05/04 07:25:06;;;;;;;;;;;12.80;40.80;;;;;;4939069;29;20282;-85
2021/05/04 07:27:33;;;;;;;1.98;0.88;;;12.80;40.60;;;;;;4925065;29;20563;-85
2021/05/04 07:30:01;;;;;;;2.22;0.70;;;12.80;41.00;;;;;;4942803;29;20355;-83
2021/05/04 07:32:29;;;;;;;1.02;0.57;;;12.80;40.40;;;;;;4948969;28;20059;-82
2021/05/04 07:34:57;;;;;;;1.63;0.80;;;12.90;40.70;;;;;;4946835;28;20050;-85
2021/05/04 07:37:24;;;;;;;5.20;0.63;;;12.80;40.60;;;;;;4948598;28;20062;-86
2021/05/04 07:39:53;;;;;;;4.57;1.27;;;12.80;40.60;;;;;;4953305;28;20108;-85
2021/05/04 07:42:21;;;;;;;3.10;1.20;;;12.80;40.10;;;;;;4929222;29;20056;-86
2021/05/04 07:44:48;;;;;;;1.65;0.60;;;12.90;39.90;;;;;;4945958;28;20115;-82
2021/05/04 07:47:15;;;;;;;1.48;0.60;;;12.80;40.60;;;;;;4947910;28;20043;-83
2021/05/04 07:49:43;;;;;;;4.45;0.70;;;12.70;41.60;;;;;;4943584;29;20054;-86
2021/05/04 07:52:13;;;;;;;1.25;0.60;;;12.60;42.70;;;;;;4936501;29;20335;-84
2021/05/04 07:54:42;;;;;;;5.30;0.90;;;12.40;43.40;;;;;;4947791;28;20051;-83
2021/05/04 07:57:12;;;;;;;3.60;0.75;;;12.30;45.50;;;;;;4942807;28;20133;-85
2021/05/04 07:59:40;;;;;;;3.85;0.80;;;12.30;45.30;;;;;;4942251;29;20064;-84
2021/05/04 08:02:13;;;;;;;1.70;1.00;;;11.90;49.40;;;;;;4941730;28;20048;-82
2021/05/04 08:04:40;;;;;;;4.15;1.00;;;11.50;49.90;;;;;;4944991;28;20047;-83
2021/05/04 08:07:08;;;;;;;4.03;1.30;;;11.40;53.40;;;;;;4944772;28;20216;-84
2021/05/04 08:09:36;;;;;;;2.60;0.90;;;11.40;51.30;;;;;;4926759;29;20062;-83
2021/05/04 08:12:04;;;;;;;3.35;0.80;;;11.50;50.00;;;;;;4937166;29;20047;-84
2021/05/04 08:14:34;;;;;;;3.88;0.90;;;11.50;51.60;;;;;;4940523;29;20046;-84
2021/05/04 08:17:10;;;;;;;3.00;1.80;;;11.50;52.10;;;;;;4951712;28;20063;-85
2021/05/04 08:19:39;;;;;;;1.20;0.50;;;11.40;52.70;;;;;;4930409;29;20055;-86
2021/05/04 08:22:07;;;;;;;5.53;0.82;;;11.50;52.50;;;;;;4948923;28;20051;-84
2021/05/04 08:24:34;;;;;;;2.63;0.80;;;11.50;54.20;;;;;;4952732;28;20118;-86
2021/05/04 08:27:01;;;;;;;1.13;0.57;;;11.60;52.80;;;;;;4956826;28;20223;-86
2021/05/04 08:29:29;;;;;;;2.03;0.70;;;11.80;51.90;;;;;;4932616;29;20044;-86
2021/05/04 08:31:57;;;;;;;1.30;0.70;;;11.90;51.00;;;;;;4949598;28;20075;-84
2021/05/04 08:34:25;;;;;;;5.85;1.30;;;11.90;51.60;;;;;;4945672;28;20063;-86
2021/05/04 08:36:52;;;;;;;2.25;0.88;;;12.00;51.50;;;;;;4948486;28;20319;-84
2021/05/04 08:39:19;;;;;;;3.70;0.60;;;12.10;51.20;;;;;;4941499;28;20043;-86
2021/05/04 08:41:48;;;;;;;1.38;0.43;;;12.10;50.90;;;;;;4966946;28;20115;-83
2021/05/04 08:44:16;;;;;;;4.68;1.08;;;12.10;51.80;;;;;;4924176;28;20093;-83
2021/05/04 08:46:45;;;;;;;6.07;1.10;;;12.00;51.30;;;;;;4944241;29;20458;-84
2021/05/04 08:49:15;;;;;;;11.73;0.90;;;12.10;51.70;;;;;;4945784;28;20054;-83
2021/05/04 08:51:46;;;;;;;2.90;0.77;;;12.10;51.40;;;;;;4936858;29;20070;-84
2021/05/04 08:54:15;;;;;;;4.03;0.73;;;12.20;51.30;;;;;;4950425;28;20100;-86
2021/05/04 08:56:46;;;;;;;2.38;0.73;;;12.20;51.20;;;;;;4922395;28;20039;-85
2021/05/04 08:59:15;;;;;;;2.90;1.40;;;12.30;50.60;;;;;;4939441;28;20051;-85
2021/05/04 09:01:43;;;;;;;5.50;0.93;;;12.50;50.60;;;;;;4924714;29;20241;-85
2021/05/04 09:04:33;;;;;;;3.15;0.80;;;12.50;50.50;;;;;;4937344;28;20076;-86
2021/05/04 09:07:15;;;;;;;8.60;0.83;;;12.50;50.60;;;;;;4943401;29;20071;-85
2021/05/04 09:10:09;;;;;;;1.90;0.50;;;12.60;49.70;;;;;;4932852;29;20310;-84
2021/05/04 09:12:41;;;;;;;5.38;0.82;;;12.70;49.90;;;;;;4948272;29;20075;-85
2021/05/04 09:15:44;;;;;;;1.75;0.50;;;12.80;49.60;;;;;;4951495;28;20058;-83
2021/05/04 09:18:39;;;;;;;1.63;0.85;;;12.90;49.60;;;;;;4959931;28;20056;-86
2021/05/04 09:21:09;;;;;;;2.90;0.60;;;12.90;50.20;;;;;;4955378;28;20078;-87
2021/05/04 09:23:40;;;;;;;1.40;0.60;;;12.90;50.30;;;;;;4955881;28;20249;-84
2021/05/04 09:26:17;;;;;;;1.52;0.68;;;13.00;50.50;;;;;;4955130;28;20044;-83
2021/05/04 09:28:48;;;;;;;14.68;0.77;;;13.20;50.50;;;;;;4939490;29;20412;-86
2021/05/04 09:31:21;;;;;;;1.42;0.38;;;13.10;50.90;;;;;;4955351;28;20058;-86
2021/05/04 09:33:49;;;;;;;5.68;0.40;;;13.00;51.30;;;;;;4942650;28;20397;-85
2021/05/04 09:36:38;;;;;;;2.58;0.50;;;12.90;51.60;;;;;;4952379;28;20054;-85
2021/05/04 09:39:06;;;;;;;2.40;0.57;;;12.80;52.30;;;;;;4952084;28;20055;-84
2021/05/04 09:41:33;;;;;;;2.20;0.60;;;12.90;52.00;;;;;;4948747;28;20060;-84
2021/05/04 09:44:01;;;;;;;2.30;0.80;;;12.90;52.10;;;;;;4950649;28;20062;-85
2021/05/04 09:46:45;;;;;;;1.33;0.60;;;13.10;52.30;;;;;;4945098;28;20721;-86
2021/05/04 09:49:28;;;;;;;2.25;0.65;;;13.00;52.20;;;;;;4943007;28;20074;-84
2021/05/04 09:52:16;;;;;;;2.88;0.40;;;13.20;51.40;;;;;;4953955;28;20047;-86
2021/05/04 09:54:45;;;;;;;1.65;0.85;;;13.10;51.60;;;;;;4939608;29;20051;-85
2021/05/04 09:57:36;;;;;;;0.95;0.50;;;13.20;51.40;;;;;;4946748;28;20062;-84
2021/05/04 10:00:08;;;;;;;1.13;0.65;;;13.20;51.60;;;;;;4941387;28;20061;-84
2021/05/04 10:02:36;;;;;;;1.58;0.57;;;12.90;52.30;;;;;;4947858;28;20051;-85
2021/05/04 10:05:05;;;;;;;5.07;0.50;;;12.80;52.50;;;;;;4948602;28;20062;-84
2021/05/04 10:07:34;;;;;;;0.88;0.40;;;12.90;52.70;;;;;;4945415;29;20416;-85
2021/05/04 10:10:03;;;;;;;1.98;0.30;;;12.60;53.60;;;;;;4962031;28;20044;-86
2021/05/04 10:12:30;;;;;;;0.55;0.30;;;12.70;53.70;;;;;;4939668;29;20050;-85
2021/05/04 10:15:04;;;;;;;1.45;0.93;;;12.60;53.90;;;;;;4944580;28;20079;-86
2021/05/04 10:17:32;;;;;;;2.88;0.50;;;12.70;54.30;;;;;;4942504;29;20258;-82
2021/05/04 10:20:03;;;;;;;0.82;0.47;;;12.60;54.50;;;;;;4951891;28;20351;-85
2021/05/04 10:22:30;;;;;;;4.78;1.10;;;12.50;55.00;;;;;;4929969;29;20066;-84
2021/05/04 10:24:59;;;;;;;1.85;1.00;;;12.40;55.70;;;;;;4952316;28;20051;-85
2021/05/04 10:27:29;;;;;;;0.85;0.40;;;12.40;56.00;;;;;;4933437;29;20070;-83
2021/05/04 10:29:56;;;;;;;3.30;0.77;;;12.40;56.30;;;;;;4954919;28;20062;-84
2021/05/04 10:32:51;;;;;;;1.15;0.55;;;12.30;57.10;;;;;;4955556;28;20052;-82
2021/05/04 10:35:41;;;;;;;3.75;0.60;;;12.20;57.50;;;;;;4943101;28;20055;-86
2021/05/04 10:38:10;;;;;;;1.58;1.08;;;12.10;59.60;;;;;;4944592;28;20074;-86
2021/05/04 10:40:40;;;;;;;1.95;0.70;;;12.00;61.50;;;;;;4943132;29;20067;-83
2021/05/04 10:43:33;;;;;;;2.03;0.55;;;11.80;62.10;;;;;;4944001;28;20039;-83
2021/05/04 10:46:04;;;;;;;3.80;0.88;;;11.70;62.50;;;;;;4959463;28;20059;-84
2021/05/04 10:48:37;;;;;;;;;;;11.70;62.40;;;;;;4942257;29;20244;-85
2021/05/04 10:51:12;;;;;;;0.88;0.45;;;11.80;61.90;;;;;;4965185;28;19919;-85
2021/05/04 10:54:01;;;;;;;1.30;0.68;;;11.80;62.10;;;;;;4948821;29;20527;-83
2021/05/04 10:56:40;;;;;;;2.00;1.02;;;11.90;61.70;;;;;;4921085;28;20161;-86
2021/05/04 10:59:09;;;;;;;1.17;0.50;;;11.90;62.10;;;;;;4951689;28;20079;-84
2021/05/04 11:01:37;;;;;;;1.77;0.50;;;11.90;62.20;;;;;;4967307;28;20118;-85
2021/05/04 11:04:06;;;;;;;1.33;0.80;;;11.90;62.70;;;;;;4952207;28;20075;-82
2021/05/04 11:06:47;;;;;;;3.78;0.70;;;11.90;62.90;;;;;;4947037;28;20090;-84
2021/05/04 11:09:16;;;;;;;2.60;0.93;;;11.90;63.00;;;;;;4956916;28;20232;-82
2021/05/04 11:11:52;;;;;;;1.95;0.60;;;11.80;62.90;;;;;;4950238;29;20056;-84
2021/05/04 11:14:39;;;;;;;0.93;0.52;;;11.80;62.90;;;;;;4972276;28;20063;-84
2021/05/04 11:17:22;;;;;;;1.02;0.60;;;11.80;62.50;;;;;;4925383;28;20115;-83
2021/05/04 11:19:49;;;;;;;1.88;0.60;;;11.80;62.30;;;;;;4950245;28;20056;-86
2021/05/04 11:22:24;;;;;;;1.40;0.65;;;11.90;62.70;;;;;;4939102;28;20051;-85
2021/05/04 11:24:53;;;;;;;2.72;1.00;;;11.90;62.50;;;;;;4948774;29;20304;-82
2021/05/04 11:27:34;;;;;;;0.90;0.40;;;11.90;62.20;;;;;;4943275;29;20079;-86
2021/05/04 11:30:06;;;;;;;1.13;0.60;;;11.90;62.60;;;;;;4943314;29;20051;-85
2021/05/04 11:32:41;;;;;;;1.63;0.50;;;11.90;62.50;;;;;;4945472;28;20538;-83
2021/05/04 11:35:10;;;;;;;0.65;0.30;;;11.80;62.50;;;;;;4945772;28;20281;-85
2021/05/04 11:37:45;;;;;;;2.45;0.88;;;12.10;61.90;;;;;;4942452;29;20079;-84
2021/05/04 11:40:21;;;;;;;1.25;0.70;;;12.30;60.90;;;;;;4940973;28;20231;-86
2021/05/04 11:42:52;;;;;;;1.50;0.80;;;12.20;61.30;;;;;;4948373;28;20062;-83
2021/05/04 11:45:21;;;;;;;2.30;0.60;;;12.10;62.00;;;;;;4957304;28;20135;-85
2021/05/04 11:47:49;;;;;;;2.75;0.63;;;12.00;62.50;;;;;;4951558;28;20231;-85
2021/05/04 11:50:18;;;;;;;1.10;0.60;;;12.00;63.00;;;;;;4950138;29;20048;-83
2021/05/04 11:52:47;;;;;;;4.90;1.00;;;11.90;63.50;;;;;;4950864;29;20062;-84
2021/05/04 11:55:19;;;;;;;0.88;0.40;;;11.80;63.70;;;;;;4946799;28;20075;-86
2021/05/04 11:57:50;;;;;;;1.58;0.90;;;11.70;65.20;;;;;;4940246;29;20054;-85
2021/05/04 12:00:20;;;;;;;4.07;1.33;;;11.50;68.00;;;;;;4949913;28;20390;-85
2021/05/04 12:02:47;;;;;;;2.15;0.60;;;11.40;70.50;;;;;;4951400;29;20074;-85
2021/05/04 12:05:23;;;;;;;4.18;1.20;;;11.30;70.80;;;;;;4937536;28;20151;-85
2021/05/04 12:07:51;;;;;;;2.35;0.80;;;11.30;70.90;;;;;;4937108;29;20055;-85
2021/05/04 12:10:29;;;;;;;2.28;0.88;;;11.20;70.60;;;;;;4939385;28;20056;-85
2021/05/04 12:13:00;;;;;;;3.85;0.80;;;11.10;72.70;;;;;;4937564;29;20059;-84
2021/05/04 12:15:31;;;;;;;3.90;0.80;;;11.10;73.30;;;;;;4937795;29;20508;-85
2021/05/04 12:18:00;;;;;;;1.95;0.75;;;11.20;71.60;;;;;;4955880;28;20051;-86
2021/05/04 12:20:32;;;;;;;3.72;0.70;;;11.30;71.50;;;;;;4952542;29;20039;-85
2021/05/04 12:23:01;;;;;;;2.40;0.57;;;11.40;70.60;;;;;;4949909;28;20463;-84
2021/05/04 12:25:48;;;;;;;2.88;1.08;;;11.50;70.50;;;;;;4941827;29;20046;-85
2021/05/04 12:28:19;;;;;;;3.03;0.90;;;11.60;69.80;;;;;;4956719;28;20051;-86
2021/05/04 12:30:46;;;;;;;1.70;0.60;;;11.50;70.70;;;;;;4934281;29;20056;-86
2021/05/04 12:33:17;;;;;;;1.92;0.82;;;11.60;70.80;;;;;;4959687;28;20474;-86
2021/05/04 12:35:51;;;;;;;1.45;0.82;;;11.80;70.60;;;;;;4937257;29;20048;-84
2021/05/04 12:38:22;;;;;;;2.45;0.93;;;11.90;71.30;;;;;;4939834;28;20078;-85
2021/05/04 12:40:53;;;;;;;2.35;0.80;;;11.70;70.30;;;;;;4924169;29;20138;-86
2021/05/04 12:43:25;;;;;;;2.70;0.70;;;11.50;71.70;;;;;;4940720;28;20079;-85
2021/05/04 12:46:16;;;;;;;1.95;0.80;;;11.40;71.50;;;;;;4951107;28;20044;-83
2021/05/04 12:48:44;;;;;;;1.00;0.47;;;11.60;70.80;;;;;;4944756;29;20637;-84
2021/05/04 12:51:16;;;;;;;1.60;0.80;;;11.80;70.00;;;;;;4946856;28;20087;-85
2021/05/04 12:53:46;;;;;;;1.73;1.08;;;11.90;72.30;;;;;;4943096;28;20187;-86
2021/05/04 12:56:15;;;;;;;1.33;0.60;;;11.80;69.40;;;;;;4933526;28;20075;-86
2021/05/04 12:58:59;;;;;;;2.58;0.70;;;11.80;68.30;;;;;;4939240;29;20043;-86
2021/05/04 13:01:41;;;;;;;7.03;0.82;;;12.00;68.00;;;;;;4949115;28;20532;-84
2021/05/04 13:04:15;;;;;;;2.60;0.70;;;12.20;67.50;;;;;;4935873;28;20051;-83